Terminal Aerodrome Forecast
Issued by NWS Duluth, MN

Home | Current Version | Previous Version | Text Only | Print | Product List | Glossary On
Versions: 1 2 3 4 5 6 7 8 9 10 11 12 13 14 15 16 17 18 19 20 21 22 23 24 25 26 27 28 29 30 31 32 33 34 35 36 37 38
000
FTUS43 KDLH 151250 AAB
TAFDLH
TAF AMD
KDLH 151250Z 1513/1612 31007KT 1SM -DZ BR OVC005
     FM151500 31010KT 4SM -DZ BR BKN008 OVC015
     FM151800 31015G25KT P6SM VCSH OVC015
     FM160200 34010G17KT P6SM OVC015
     FM160600 36008KT P6SM BKN030=

USA.gov is the U.S. government's official web portal to all federal, state and local government web resources and services.